sensor_id;sensor_type;location;lat;lon;timestamp;P1;durP1;ratioP1;P2;durP2;ratioP2
35634;SDS011;21757;43.610;1.440;2022-12-10T00:01:22;46.47;;;28.10;;
35634;SDS011;21757;43.610;1.440;2022-12-10T00:03:49;46.50;;;27.83;;
35634;SDS011;21757;43.610;1.440;2022-12-10T00:06:16;45.25;;;27.70;;
35634;SDS011;21757;43.610;1.440;2022-12-10T00:08:43;50.92;;;30.00;;
35634;SDS011;21757;43.610;1.440;2022-12-10T00:11:10;50.53;;;30.17;;
35634;SDS011;21757;43.610;1.440;2022-12-10T00:13:37;52.17;;;30.73;;
35634;SDS011;21757;43.610;1.440;2022-12-10T00:16:04;55.10;;;31.73;;
35634;SDS011;21757;43.610;1.440;2022-12-10T00:18:32;50.33;;;31.17;;
35634;SDS011;21757;43.610;1.440;2022-12-10T00:21:01;55.67;;;32.25;;
35634;SDS011;21757;43.610;1.440;2022-12-10T00:23:28;55.28;;;32.55;;
35634;SDS011;21757;43.610;1.440;2022-12-10T00:26:01;52.88;;;30.70;;
35634;SDS011;21757;43.610;1.440;2022-12-10T00:31:04;55.13;;;30.88;;
35634;SDS011;21757;43.610;1.440;2022-12-10T00:33:38;52.78;;;32.35;;
35634;SDS011;21757;43.610;1.440;2022-12-10T00:36:05;53.00;;;32.10;;
35634;SDS011;21757;43.610;1.440;2022-12-10T00:38:33;57.47;;;33.85;;
35634;SDS011;21757;43.610;1.440;2022-12-10T00:40:59;53.60;;;32.17;;
35634;SDS011;21757;43.610;1.440;2022-12-10T00:43:25;56.88;;;32.72;;
35634;SDS011;21757;43.610;1.440;2022-12-10T00:45:51;58.00;;;33.58;;
35634;SDS011;21757;43.610;1.440;2022-12-10T00:48:17;54.28;;;33.33;;
35634;SDS011;21757;43.610;1.440;2022-12-10T00:50:42;48.60;;;30.23;;
35634;SDS011;21757;43.610;1.440;2022-12-10T00:53:08;50.45;;;29.88;;
35634;SDS011;21757;43.610;1.440;2022-12-10T00:55:34;51.90;;;31.15;;
35634;SDS011;21757;43.610;1.440;2022-12-10T00:57:59;48.65;;;29.75;;
35634;SDS011;21757;43.610;1.440;2022-12-10T01:00:25;48.22;;;29.58;;
35634;SDS011;21757;43.610;1.440;2022-12-10T01:02:51;49.78;;;30.48;;
35634;SDS011;21757;43.610;1.440;2022-12-10T01:05:18;43.85;;;28.83;;
35634;SDS011;21757;43.610;1.440;2022-12-10T01:07:44;50.10;;;31.00;;
35634;SDS011;21757;43.610;1.440;2022-12-10T01:10:09;48.15;;;30.05;;
35634;SDS011;21757;43.610;1.440;2022-12-10T01:12:35;49.42;;;29.63;;
35634;SDS011;21757;43.610;1.440;2022-12-10T01:15:01;44.83;;;28.63;;
35634;SDS011;21757;43.610;1.440;2022-12-10T01:17:26;51.70;;;31.58;;
35634;SDS011;21757;43.610;1.440;2022-12-10T01:19:52;53.33;;;31.25;;
35634;SDS011;21757;43.610;1.440;2022-12-10T01:22:18;50.97;;;30.50;;
35634;SDS011;21757;43.610;1.440;2022-12-10T01:24:43;49.53;;;28.38;;
35634;SDS011;21757;43.610;1.440;2022-12-10T01:27:09;38.63;;;25.50;;
35634;SDS011;21757;43.610;1.440;2022-12-10T01:29:35;39.60;;;25.40;;
35634;SDS011;21757;43.610;1.440;2022-12-10T01:32:00;37.92;;;24.63;;
35634;SDS011;21757;43.610;1.440;2022-12-10T01:34:26;40.67;;;25.20;;
35634;SDS011;21757;43.610;1.440;2022-12-10T01:36:52;39.33;;;25.52;;
35634;SDS011;21757;43.610;1.440;2022-12-10T01:39:20;40.22;;;25.95;;
35634;SDS011;21757;43.610;1.440;2022-12-10T01:41:54;40.47;;;25.52;;
35634;SDS011;21757;43.610;1.440;2022-12-10T01:46:49;38.17;;;24.63;;
35634;SDS011;21757;43.610;1.440;2022-12-10T01:49:23;37.92;;;23.85;;
35634;SDS011;21757;43.610;1.440;2022-12-10T01:51:49;35.40;;;24.30;;
35634;SDS011;21757;43.610;1.440;2022-12-10T01:54:28;39.25;;;24.63;;
35634;SDS011;21757;43.610;1.440;2022-12-10T01:59:33;34.55;;;23.45;;
35634;SDS011;21757;43.610;1.440;2022-12-10T02:02:19;36.80;;;24.02;;
35634;SDS011;21757;43.610;1.440;2022-12-10T02:05:05;34.63;;;23.85;;
35634;SDS011;21757;43.610;1.440;2022-12-10T02:13:29;40.13;;;24.63;;
35634;SDS011;21757;43.610;1.440;2022-12-10T02:16:14;38.22;;;24.27;;
35634;SDS011;21757;43.610;1.440;2022-12-10T02:19:07;37.17;;;24.75;;
35634;SDS011;21757;43.610;1.440;2022-12-10T02:21:43;38.97;;;24.95;;
35634;SDS011;21757;43.610;1.440;2022-12-10T02:24:14;39.53;;;24.92;;
35634;SDS011;21757;43.610;1.440;2022-12-10T02:27:01;39.28;;;24.90;;
35634;SDS011;21757;43.610;1.440;2022-12-10T02:29:35;43.55;;;25.83;;
35634;SDS011;21757;43.610;1.440;2022-12-10T02:32:04;38.33;;;24.70;;
35634;SDS011;21757;43.610;1.440;2022-12-10T02:34:41;33.08;;;23.52;;
35634;SDS011;21757;43.610;1.440;2022-12-10T02:37:27;36.10;;;22.35;;
35634;SDS011;21757;43.610;1.440;2022-12-10T02:39:57;36.67;;;22.38;;
35634;SDS011;21757;43.610;1.440;2022-12-10T02:42:26;37.67;;;22.30;;
35634;SDS011;21757;43.610;1.440;2022-12-10T02:44:54;33.17;;;21.83;;
35634;SDS011;21757;43.610;1.440;2022-12-10T02:47:21;31.75;;;21.63;;
35634;SDS011;21757;43.610;1.440;2022-12-10T02:49:47;31.27;;;21.38;;
35634;SDS011;21757;43.610;1.440;2022-12-10T02:52:17;33.58;;;21.92;;
35634;SDS011;21757;43.610;1.440;2022-12-10T02:54:45;36.75;;;22.17;;
35634;SDS011;21757;43.610;1.440;2022-12-10T02:57:18;33.05;;;21.05;;
35634;SDS011;21757;43.610;1.440;2022-12-10T03:00:22;30.95;;;19.15;;
35634;SDS011;21757;43.610;1.440;2022-12-10T03:02:55;29.05;;;18.77;;
35634;SDS011;21757;43.610;1.440;2022-12-10T03:08:25;28.35;;;19.23;;
35634;SDS011;21757;43.610;1.440;2022-12-10T03:11:14;29.00;;;19.23;;
35634;SDS011;21757;43.610;1.440;2022-12-10T03:16:41;35.97;;;20.80;;
35634;SDS011;21757;43.610;1.440;2022-12-10T03:19:11;32.97;;;20.70;;
35634;SDS011;21757;43.610;1.440;2022-12-10T03:21:40;30.43;;;20.20;;
35634;SDS011;21757;43.610;1.440;2022-12-10T03:24:08;31.27;;;21.17;;
35634;SDS011;21757;43.610;1.440;2022-12-10T03:26:35;34.85;;;20.83;;
35634;SDS011;21757;43.610;1.440;2022-12-10T03:29:05;29.65;;;20.13;;
35634;SDS011;21757;43.610;1.440;2022-12-10T03:31:33;34.22;;;20.58;;
35634;SDS011;21757;43.610;1.440;2022-12-10T03:34:00;30.70;;;19.92;;
35634;SDS011;21757;43.610;1.440;2022-12-10T03:36:27;28.67;;;18.23;;
35634;SDS011;21757;43.610;1.440;2022-12-10T03:38:55;26.70;;;18.65;;
35634;SDS011;21757;43.610;1.440;2022-12-10T03:41:20;31.67;;;19.23;;
35634;SDS011;21757;43.610;1.440;2022-12-10T03:43:53;30.52;;;19.55;;
35634;SDS011;21757;43.610;1.440;2022-12-10T03:46:21;30.50;;;18.67;;
35634;SDS011;21757;43.610;1.440;2022-12-10T03:48:48;31.80;;;19.38;;
35634;SDS011;21757;43.610;1.440;2022-12-10T03:51:15;34.00;;;19.40;;
35634;SDS011;21757;43.610;1.440;2022-12-10T03:53:40;32.13;;;19.08;;
35634;SDS011;21757;43.610;1.440;2022-12-10T03:56:06;28.70;;;19.15;;
35634;SDS011;21757;43.610;1.440;2022-12-10T03:58:33;29.38;;;18.45;;
35634;SDS011;21757;43.610;1.440;2022-12-10T04:00:58;31.67;;;19.05;;
35634;SDS011;21757;43.610;1.440;2022-12-10T04:03:24;29.63;;;18.60;;
35634;SDS011;21757;43.610;1.440;2022-12-10T04:05:49;27.67;;;17.95;;
35634;SDS011;21757;43.610;1.440;2022-12-10T04:08:15;29.90;;;17.98;;
35634;SDS011;21757;43.610;1.440;2022-12-10T04:10:41;31.20;;;18.45;;
35634;SDS011;21757;43.610;1.440;2022-12-10T04:13:06;30.33;;;18.13;;
35634;SDS011;21757;43.610;1.440;2022-12-10T04:15:50;29.63;;;17.77;;
35634;SDS011;21757;43.610;1.440;2022-12-10T04:18:35;31.45;;;18.38;;
35634;SDS011;21757;43.610;1.440;2022-12-10T04:21:00;28.60;;;17.42;;
35634;SDS011;21757;43.610;1.440;2022-12-10T04:23:44;29.08;;;16.63;;
35634;SDS011;21757;43.610;1.440;2022-12-10T04:26:28;28.38;;;16.67;;
35634;SDS011;21757;43.610;1.440;2022-12-10T04:29:12;26.70;;;16.77;;
35634;SDS011;21757;43.610;1.440;2022-12-10T04:31:38;28.38;;;17.65;;
35634;SDS011;21757;43.610;1.440;2022-12-10T04:34:04;28.73;;;17.90;;
35634;SDS011;21757;43.610;1.440;2022-12-10T04:36:29;27.55;;;17.88;;
35634;SDS011;21757;43.610;1.440;2022-12-10T04:38:55;28.85;;;17.27;;
35634;SDS011;21757;43.610;1.440;2022-12-10T04:41:21;27.35;;;16.95;;
35634;SDS011;21757;43.610;1.440;2022-12-10T04:43:46;26.40;;;16.33;;
35634;SDS011;21757;43.610;1.440;2022-12-10T04:46:12;23.10;;;15.20;;
35634;SDS011;21757;43.610;1.440;2022-12-10T04:48:38;26.15;;;16.13;;
35634;SDS011;21757;43.610;1.440;2022-12-10T04:51:06;22.30;;;15.05;;
35634;SDS011;21757;43.610;1.440;2022-12-10T04:53:31;26.27;;;15.88;;
35634;SDS011;21757;43.610;1.440;2022-12-10T04:55:57;26.08;;;16.13;;
35634;SDS011;21757;43.610;1.440;2022-12-10T04:58:23;26.70;;;16.10;;
35634;SDS011;21757;43.610;1.440;2022-12-10T05:00:48;26.17;;;15.70;;
35634;SDS011;21757;43.610;1.440;2022-12-10T05:03:14;22.80;;;15.07;;
35634;SDS011;21757;43.610;1.440;2022-12-10T05:05:40;21.75;;;14.43;;
35634;SDS011;21757;43.610;1.440;2022-12-10T05:08:05;25.52;;;14.90;;
35634;SDS011;21757;43.610;1.440;2022-12-10T05:10:33;22.73;;;14.70;;
35634;SDS011;21757;43.610;1.440;2022-12-10T05:12:59;23.08;;;14.50;;
35634;SDS011;21757;43.610;1.440;2022-12-10T05:15:25;22.02;;;14.25;;
35634;SDS011;21757;43.610;1.440;2022-12-10T05:17:51;23.23;;;14.02;;
35634;SDS011;21757;43.610;1.440;2022-12-10T05:20:16;21.27;;;13.85;;
35634;SDS011;21757;43.610;1.440;2022-12-10T05:22:42;22.63;;;14.50;;
35634;SDS011;21757;43.610;1.440;2022-12-10T05:25:26;23.10;;;14.25;;
35634;SDS011;21757;43.610;1.440;2022-12-10T05:27:52;25.83;;;14.73;;
35634;SDS011;21757;43.610;1.440;2022-12-10T05:30:18;25.95;;;14.73;;
35634;SDS011;21757;43.610;1.440;2022-12-10T05:32:43;25.08;;;15.88;;
35634;SDS011;21757;43.610;1.440;2022-12-10T05:35:09;26.13;;;15.25;;
35634;SDS011;21757;43.610;1.440;2022-12-10T05:37:35;29.40;;;15.48;;
35634;SDS011;21757;43.610;1.440;2022-12-10T05:40:00;27.75;;;14.95;;
35634;SDS011;21757;43.610;1.440;2022-12-10T05:42:26;24.88;;;14.77;;
35634;SDS011;21757;43.610;1.440;2022-12-10T05:44:52;26.08;;;14.98;;
35634;SDS011;21757;43.610;1.440;2022-12-10T05:47:18;25.40;;;14.85;;
35634;SDS011;21757;43.610;1.440;2022-12-10T05:49:44;23.38;;;15.07;;
35634;SDS011;21757;43.610;1.440;2022-12-10T05:52:09;27.55;;;15.23;;
35634;SDS011;21757;43.610;1.440;2022-12-10T05:54:35;26.58;;;15.32;;
35634;SDS011;21757;43.610;1.440;2022-12-10T05:57:01;23.65;;;14.57;;
35634;SDS011;21757;43.610;1.440;2022-12-10T05:59:27;25.33;;;15.45;;
35634;SDS011;21757;43.610;1.440;2022-12-10T06:01:52;26.05;;;15.77;;
35634;SDS011;21757;43.610;1.440;2022-12-10T06:04:18;29.08;;;16.85;;
35634;SDS011;21757;43.610;1.440;2022-12-10T06:06:44;24.63;;;15.93;;
35634;SDS011;21757;43.610;1.440;2022-12-10T06:09:12;26.33;;;15.00;;
35634;SDS011;21757;43.610;1.440;2022-12-10T06:11:38;25.75;;;15.75;;
35634;SDS011;21757;43.610;1.440;2022-12-10T06:14:04;25.95;;;15.82;;
35634;SDS011;21757;43.610;1.440;2022-12-10T06:16:29;25.30;;;15.63;;
35634;SDS011;21757;43.610;1.440;2022-12-10T06:18:55;29.15;;;16.38;;
35634;SDS011;21757;43.610;1.440;2022-12-10T06:21:22;26.80;;;16.23;;
35634;SDS011;21757;43.610;1.440;2022-12-10T06:23:48;30.25;;;16.73;;
35634;SDS011;21757;43.610;1.440;2022-12-10T06:26:17;29.00;;;15.88;;
35634;SDS011;21757;43.610;1.440;2022-12-10T06:28:45;30.63;;;17.27;;
35634;SDS011;21757;43.610;1.440;2022-12-10T06:31:11;30.58;;;18.00;;
35634;SDS011;21757;43.610;1.440;2022-12-10T06:33:37;27.40;;;15.88;;
35634;SDS011;21757;43.610;1.440;2022-12-10T06:36:04;30.35;;;16.23;;
35634;SDS011;21757;43.610;1.440;2022-12-10T06:38:31;28.80;;;17.33;;
35634;SDS011;21757;43.610;1.440;2022-12-10T06:40:57;29.60;;;16.85;;
35634;SDS011;21757;43.610;1.440;2022-12-10T06:43:23;29.05;;;16.13;;
35634;SDS011;21757;43.610;1.440;2022-12-10T06:45:49;27.77;;;17.23;;
35634;SDS011;21757;43.610;1.440;2022-12-10T06:48:14;31.83;;;17.75;;
35634;SDS011;21757;43.610;1.440;2022-12-10T06:50:40;32.15;;;17.77;;
35634;SDS011;21757;43.610;1.440;2022-12-10T06:53:06;29.77;;;16.98;;
35634;SDS011;21757;43.610;1.440;2022-12-10T06:55:32;29.63;;;16.60;;
35634;SDS011;21757;43.610;1.440;2022-12-10T06:57:57;28.05;;;15.82;;
35634;SDS011;21757;43.610;1.440;2022-12-10T07:00:23;28.95;;;17.50;;
35634;SDS011;21757;43.610;1.440;2022-12-10T07:02:49;32.95;;;17.88;;
35634;SDS011;21757;43.610;1.440;2022-12-10T07:05:14;34.80;;;17.30;;
35634;SDS011;21757;43.610;1.440;2022-12-10T07:07:40;29.35;;;16.42;;
35634;SDS011;21757;43.610;1.440;2022-12-10T07:10:07;27.70;;;15.80;;
35634;SDS011;21757;43.610;1.440;2022-12-10T07:12:33;25.45;;;15.95;;
35634;SDS011;21757;43.610;1.440;2022-12-10T07:14:59;24.92;;;15.38;;
35634;SDS011;21757;43.610;1.440;2022-12-10T07:17:24;24.38;;;14.35;;
35634;SDS011;21757;43.610;1.440;2022-12-10T07:19:50;25.42;;;15.85;;
35634;SDS011;21757;43.610;1.440;2022-12-10T07:22:16;24.80;;;14.65;;
35634;SDS011;21757;43.610;1.440;2022-12-10T07:24:42;26.10;;;14.88;;
35634;SDS011;21757;43.610;1.440;2022-12-10T07:27:08;25.48;;;14.07;;
35634;SDS011;21757;43.610;1.440;2022-12-10T07:29:34;21.80;;;13.27;;
35634;SDS011;21757;43.610;1.440;2022-12-10T07:32:00;21.95;;;13.52;;
35634;SDS011;21757;43.610;1.440;2022-12-10T07:34:25;21.65;;;13.85;;
35634;SDS011;21757;43.610;1.440;2022-12-10T07:36:51;21.92;;;12.80;;
35634;SDS011;21757;43.610;1.440;2022-12-10T07:39:17;19.83;;;12.60;;
35634;SDS011;21757;43.610;1.440;2022-12-10T07:41:49;20.75;;;13.10;;
35634;SDS011;21757;43.610;1.440;2022-12-10T07:44:17;19.90;;;13.05;;
35634;SDS011;21757;43.610;1.440;2022-12-10T07:46:45;21.27;;;13.55;;
35634;SDS011;21757;43.610;1.440;2022-12-10T07:49:12;25.38;;;14.05;;
35634;SDS011;21757;43.610;1.440;2022-12-10T07:51:37;23.35;;;14.30;;
35634;SDS011;21757;43.610;1.440;2022-12-10T07:54:03;23.17;;;13.60;;
35634;SDS011;21757;43.610;1.440;2022-12-10T07:56:32;23.73;;;13.85;;
35634;SDS011;21757;43.610;1.440;2022-12-10T07:58:57;26.25;;;13.65;;
35634;SDS011;21757;43.610;1.440;2022-12-10T08:01:24;21.15;;;12.65;;
35634;SDS011;21757;43.610;1.440;2022-12-10T08:03:51;22.00;;;13.73;;
35634;SDS011;21757;43.610;1.440;2022-12-10T08:06:19;18.02;;;12.13;;
35634;SDS011;21757;43.610;1.440;2022-12-10T08:08:45;20.15;;;12.57;;
35634;SDS011;21757;43.610;1.440;2022-12-10T08:11:12;32.15;;;18.25;;
35634;SDS011;21757;43.610;1.440;2022-12-10T08:13:38;24.65;;;15.32;;
35634;SDS011;21757;43.610;1.440;2022-12-10T08:16:10;20.80;;;13.27;;
35634;SDS011;21757;43.610;1.440;2022-12-10T08:18:41;24.77;;;13.68;;
35634;SDS011;21757;43.610;1.440;2022-12-10T08:21:12;23.65;;;13.18;;
35634;SDS011;21757;43.610;1.440;2022-12-10T08:23:40;22.38;;;13.35;;
35634;SDS011;21757;43.610;1.440;2022-12-10T08:26:07;22.40;;;12.73;;
35634;SDS011;21757;43.610;1.440;2022-12-10T08:28:34;23.85;;;13.68;;
35634;SDS011;21757;43.610;1.440;2022-12-10T08:31:01;19.50;;;12.43;;
35634;SDS011;21757;43.610;1.440;2022-12-10T08:33:27;20.98;;;13.27;;
35634;SDS011;21757;43.610;1.440;2022-12-10T08:35:56;21.52;;;14.13;;
35634;SDS011;21757;43.610;1.440;2022-12-10T08:38:23;20.60;;;13.30;;
35634;SDS011;21757;43.610;1.440;2022-12-10T08:40:49;20.50;;;13.68;;
35634;SDS011;21757;43.610;1.440;2022-12-10T08:43:14;20.48;;;14.13;;
35634;SDS011;21757;43.610;1.440;2022-12-10T08:45:40;21.35;;;13.00;;
35634;SDS011;21757;43.610;1.440;2022-12-10T08:48:06;20.75;;;13.65;;
35634;SDS011;21757;43.610;1.440;2022-12-10T08:50:31;19.05;;;13.80;;
35634;SDS011;21757;43.610;1.440;2022-12-10T08:52:57;19.63;;;13.20;;
35634;SDS011;21757;43.610;1.440;2022-12-10T08:55:23;20.85;;;13.00;;
35634;SDS011;21757;43.610;1.440;2022-12-10T08:57:48;23.90;;;13.48;;
35634;SDS011;21757;43.610;1.440;2022-12-10T09:00:14;19.30;;;13.20;;
35634;SDS011;21757;43.610;1.440;2022-12-10T09:02:40;19.63;;;12.25;;
35634;SDS011;21757;43.610;1.440;2022-12-10T09:05:06;21.63;;;13.55;;
35634;SDS011;21757;43.610;1.440;2022-12-10T09:07:32;21.08;;;13.32;;
35634;SDS011;21757;43.610;1.440;2022-12-10T09:09:58;22.83;;;12.48;;
35634;SDS011;21757;43.610;1.440;2022-12-10T09:12:24;19.38;;;12.25;;
35634;SDS011;21757;43.610;1.440;2022-12-10T09:14:49;19.73;;;12.50;;
35634;SDS011;21757;43.610;1.440;2022-12-10T09:17:15;23.25;;;12.85;;
35634;SDS011;21757;43.610;1.440;2022-12-10T09:19:42;20.75;;;13.52;;
35634;SDS011;21757;43.610;1.440;2022-12-10T09:22:08;23.02;;;13.13;;
35634;SDS011;21757;43.610;1.440;2022-12-10T09:24:33;22.23;;;13.85;;
35634;SDS011;21757;43.610;1.440;2022-12-10T09:27:00;27.27;;;12.88;;
35634;SDS011;21757;43.610;1.440;2022-12-10T09:29:27;20.70;;;12.68;;
35634;SDS011;21757;43.610;1.440;2022-12-10T09:31:53;23.73;;;13.07;;
35634;SDS011;21757;43.610;1.440;2022-12-10T09:34:19;18.75;;;11.60;;
35634;SDS011;21757;43.610;1.440;2022-12-10T09:36:46;16.98;;;11.50;;
35634;SDS011;21757;43.610;1.440;2022-12-10T09:39:12;19.83;;;12.13;;
35634;SDS011;21757;43.610;1.440;2022-12-10T09:47:45;17.80;;;12.35;;
35634;SDS011;21757;43.610;1.440;2022-12-10T09:50:26;18.07;;;11.53;;
35634;SDS011;21757;43.610;1.440;2022-12-10T09:53:12;17.30;;;11.30;;
35634;SDS011;21757;43.610;1.440;2022-12-10T09:55:43;16.42;;;10.48;;
35634;SDS011;21757;43.610;1.440;2022-12-10T09:58:13;16.50;;;10.85;;
35634;SDS011;21757;43.610;1.440;2022-12-10T10:00:56;16.80;;;10.85;;
35634;SDS011;21757;43.610;1.440;2022-12-10T10:03:24;18.75;;;10.90;;
35634;SDS011;21757;43.610;1.440;2022-12-10T10:05:54;14.63;;;10.60;;
35634;SDS011;21757;43.610;1.440;2022-12-10T10:08:55;11.73;;;7.72;;
35634;SDS011;21757;43.610;1.440;2022-12-10T10:11:18;16.55;;;11.07;;
35634;SDS011;21757;43.610;1.440;2022-12-10T10:13:49;15.20;;;10.88;;
35634;SDS011;21757;43.610;1.440;2022-12-10T10:16:24;16.63;;;11.32;;
35634;SDS011;21757;43.610;1.440;2022-12-10T10:19:00;17.98;;;10.90;;
35634;SDS011;21757;43.610;1.440;2022-12-10T10:21:41;19.38;;;11.63;;
35634;SDS011;21757;43.610;1.440;2022-12-10T10:24:16;17.38;;;10.77;;
35634;SDS011;21757;43.610;1.440;2022-12-10T10:26:44;19.27;;;10.65;;
35634;SDS011;21757;43.610;1.440;2022-12-10T10:29:11;20.17;;;11.88;;
35634;SDS011;21757;43.610;1.440;2022-12-10T10:31:41;16.57;;;10.47;;
35634;SDS011;21757;43.610;1.440;2022-12-10T10:36:42;18.00;;;11.10;;
35634;SDS011;21757;43.610;1.440;2022-12-10T10:39:22;16.15;;;10.20;;
35634;SDS011;21757;43.610;1.440;2022-12-10T10:41:54;17.25;;;10.35;;
35634;SDS011;21757;43.610;1.440;2022-12-10T10:44:23;15.68;;;10.60;;
35634;SDS011;21757;43.610;1.440;2022-12-10T10:46:59;17.98;;;11.18;;
35634;SDS011;21757;43.610;1.440;2022-12-10T10:51:59;14.77;;;10.63;;
35634;SDS011;21757;43.610;1.440;2022-12-10T10:59:38;14.48;;;10.30;;
35634;SDS011;21757;43.610;1.440;2022-12-10T11:02:18;14.93;;;9.90;;
35634;SDS011;21757;43.610;1.440;2022-12-10T11:04:48;18.38;;;10.48;;
35634;SDS011;21757;43.610;1.440;2022-12-10T11:07:35;14.85;;;8.98;;
35634;SDS011;21757;43.610;1.440;2022-12-10T11:10:04;15.43;;;9.25;;
35634;SDS011;21757;43.610;1.440;2022-12-10T11:12:42;16.83;;;9.25;;
35634;SDS011;21757;43.610;1.440;2022-12-10T11:17:48;17.67;;;10.15;;
35634;SDS011;21757;43.610;1.440;2022-12-10T11:22:58;15.00;;;9.80;;
35634;SDS011;21757;43.610;1.440;2022-12-10T11:25:35;17.63;;;10.30;;
35634;SDS011;21757;43.610;1.440;2022-12-10T11:34:20;15.77;;;9.93;;
35634;SDS011;21757;43.610;1.440;2022-12-10T11:48:21;16.52;;;10.13;;
35634;SDS011;21757;43.610;1.440;2022-12-10T11:51:15;12.68;;;8.95;;
35634;SDS011;21757;43.610;1.440;2022-12-10T11:53:46;16.33;;;9.77;;
35634;SDS011;21757;43.610;1.440;2022-12-10T12:12:59;14.20;;;9.02;;
35634;SDS011;21757;43.610;1.440;2022-12-10T12:15:38;15.02;;;9.77;;
35634;SDS011;21757;43.610;1.440;2022-12-10T12:20:44;13.73;;;9.32;;
35634;SDS011;21757;43.610;1.440;2022-12-10T12:26:08;12.85;;;8.35;;
35634;SDS011;21757;43.610;1.440;2022-12-10T12:28:47;13.57;;;8.98;;
35634;SDS011;21757;43.610;1.440;2022-12-10T12:31:31;14.93;;;9.13;;
35634;SDS011;21757;43.610;1.440;2022-12-10T12:34:11;17.05;;;11.05;;
35634;SDS011;21757;43.610;1.440;2022-12-10T12:36:47;15.43;;;9.45;;
35634;SDS011;21757;43.610;1.440;2022-12-10T12:42:37;16.13;;;8.57;;
35634;SDS011;21757;43.610;1.440;2022-12-10T12:49:56;15.20;;;9.23;;
35634;SDS011;21757;43.610;1.440;2022-12-10T12:57:44;13.23;;;7.93;;
35634;SDS011;21757;43.610;1.440;2022-12-10T13:00:19;16.33;;;8.23;;
35634;SDS011;21757;43.610;1.440;2022-12-10T13:05:38;15.07;;;8.73;;
35634;SDS011;21757;43.610;1.440;2022-12-10T13:11:29;14.25;;;8.27;;
35634;SDS011;21757;43.610;1.440;2022-12-10T13:13:39;12.10;;;7.53;;
35634;SDS011;21757;43.610;1.440;2022-12-10T13:32:18;15.20;;;9.43;;
35634;SDS011;21757;43.610;1.440;2022-12-10T13:34:46;15.45;;;8.95;;
35634;SDS011;21757;43.610;1.440;2022-12-10T13:37:32;13.82;;;8.32;;
35634;SDS011;21757;43.610;1.440;2022-12-10T13:40:26;17.38;;;10.30;;
35634;SDS011;21757;43.610;1.440;2022-12-10T13:42:59;14.95;;;9.15;;
35634;SDS011;21757;43.610;1.440;2022-12-10T13:48:59;15.02;;;9.25;;
35634;SDS011;21757;43.610;1.440;2022-12-10T13:53:59;17.27;;;10.93;;
35634;SDS011;21757;43.610;1.440;2022-12-10T13:56:30;18.30;;;10.07;;
35634;SDS011;21757;43.610;1.440;2022-12-10T13:59:14;16.45;;;10.23;;
35634;SDS011;21757;43.610;1.440;2022-12-10T14:07:28;16.48;;;10.48;;
35634;SDS011;21757;43.610;1.440;2022-12-10T14:09:56;14.23;;;9.73;;
35634;SDS011;21757;43.610;1.440;2022-12-10T14:12:25;14.95;;;10.02;;
35634;SDS011;21757;43.610;1.440;2022-12-10T14:15:16;16.05;;;10.40;;
35634;SDS011;21757;43.610;1.440;2022-12-10T14:17:46;19.60;;;10.77;;
35634;SDS011;21757;43.610;1.440;2022-12-10T14:20:22;19.75;;;11.93;;
35634;SDS011;21757;43.610;1.440;2022-12-10T14:22:50;18.80;;;10.77;;
35634;SDS011;21757;43.610;1.440;2022-12-10T14:25:20;17.20;;;10.55;;
35634;SDS011;21757;43.610;1.440;2022-12-10T14:27:48;26.65;;;15.40;;
35634;SDS011;21757;43.610;1.440;2022-12-10T14:30:17;16.60;;;10.05;;
35634;SDS011;21757;43.610;1.440;2022-12-10T14:32:52;17.73;;;11.25;;
35634;SDS011;21757;43.610;1.440;2022-12-10T14:35:22;17.48;;;10.27;;
35634;SDS011;21757;43.610;1.440;2022-12-10T14:37:49;15.93;;;9.88;;
35634;SDS011;21757;43.610;1.440;2022-12-10T14:40:21;17.27;;;10.45;;
35634;SDS011;21757;43.610;1.440;2022-12-10T14:42:50;15.68;;;10.15;;
35634;SDS011;21757;43.610;1.440;2022-12-10T14:45:22;19.05;;;10.43;;
35634;SDS011;21757;43.610;1.440;2022-12-10T14:47:48;19.17;;;11.27;;
35634;SDS011;21757;43.610;1.440;2022-12-10T14:50:15;21.52;;;11.43;;
35634;SDS011;21757;43.610;1.440;2022-12-10T14:52:43;17.48;;;10.85;;
35634;SDS011;21757;43.610;1.440;2022-12-10T14:55:14;17.85;;;10.95;;
35634;SDS011;21757;43.610;1.440;2022-12-10T14:57:43;15.68;;;10.25;;
35634;SDS011;21757;43.610;1.440;2022-12-10T15:00:29;17.33;;;10.70;;
35634;SDS011;21757;43.610;1.440;2022-12-10T15:02:57;20.73;;;12.32;;
35634;SDS011;21757;43.610;1.440;2022-12-10T15:05:31;22.00;;;12.55;;
35634;SDS011;21757;43.610;1.440;2022-12-10T15:08:00;17.00;;;11.32;;
35634;SDS011;21757;43.610;1.440;2022-12-10T15:10:33;21.05;;;12.25;;
35634;SDS011;21757;43.610;1.440;2022-12-10T15:13:02;20.70;;;11.75;;
35634;SDS011;21757;43.610;1.440;2022-12-10T15:15:36;18.75;;;11.88;;
35634;SDS011;21757;43.610;1.440;2022-12-10T15:20:36;20.83;;;11.95;;
35634;SDS011;21757;43.610;1.440;2022-12-10T15:28:34;21.58;;;12.68;;
35634;SDS011;21757;43.610;1.440;2022-12-10T15:33:53;16.95;;;11.15;;
35634;SDS011;21757;43.610;1.440;2022-12-10T15:36:25;19.92;;;11.57;;
35634;SDS011;21757;43.610;1.440;2022-12-10T15:39:04;19.20;;;11.55;;
35634;SDS011;21757;43.610;1.440;2022-12-10T15:41:48;19.30;;;11.00;;
35634;SDS011;21757;43.610;1.440;2022-12-10T15:44:27;19.25;;;11.82;;
35634;SDS011;21757;43.610;1.440;2022-12-10T15:49:27;21.23;;;12.20;;
35634;SDS011;21757;43.610;1.440;2022-12-10T15:51:53;22.80;;;12.77;;
35634;SDS011;21757;43.610;1.440;2022-12-10T15:54:26;21.30;;;12.45;;
35634;SDS011;21757;43.610;1.440;2022-12-10T15:56:52;21.27;;;12.40;;
35634;SDS011;21757;43.610;1.440;2022-12-10T15:59:18;19.40;;;11.98;;
35634;SDS011;21757;43.610;1.440;2022-12-10T16:01:44;24.08;;;13.70;;
35634;SDS011;21757;43.610;1.440;2022-12-10T16:04:10;47.15;;;25.80;;
35634;SDS011;21757;43.610;1.440;2022-12-10T16:06:37;23.00;;;14.43;;
35634;SDS011;21757;43.610;1.440;2022-12-10T16:09:03;17.98;;;10.98;;
35634;SDS011;21757;43.610;1.440;2022-12-10T16:11:29;18.85;;;11.75;;
35634;SDS011;21757;43.610;1.440;2022-12-10T16:13:54;18.70;;;12.25;;
35634;SDS011;21757;43.610;1.440;2022-12-10T16:16:24;19.60;;;12.48;;
35634;SDS011;21757;43.610;1.440;2022-12-10T16:18:50;23.55;;;13.32;;
35634;SDS011;21757;43.610;1.440;2022-12-10T16:21:17;19.45;;;12.52;;
35634;SDS011;21757;43.610;1.440;2022-12-10T16:23:43;20.83;;;13.07;;
35634;SDS011;21757;43.610;1.440;2022-12-10T16:26:19;22.85;;;13.55;;
35634;SDS011;21757;43.610;1.440;2022-12-10T16:28:47;20.17;;;12.60;;
35634;SDS011;21757;43.610;1.440;2022-12-10T16:31:15;20.50;;;13.30;;
35634;SDS011;21757;43.610;1.440;2022-12-10T16:33:42;20.00;;;13.40;;
35634;SDS011;21757;43.610;1.440;2022-12-10T16:36:09;22.15;;;13.27;;
35634;SDS011;21757;43.610;1.440;2022-12-10T16:38:36;23.00;;;13.93;;
35634;SDS011;21757;43.610;1.440;2022-12-10T16:41:03;20.15;;;12.50;;
35634;SDS011;21757;43.610;1.440;2022-12-10T16:43:38;24.15;;;14.23;;
35634;SDS011;21757;43.610;1.440;2022-12-10T16:46:04;25.15;;;14.63;;
35634;SDS011;21757;43.610;1.440;2022-12-10T16:48:30;22.63;;;13.85;;
35634;SDS011;21757;43.610;1.440;2022-12-10T16:50:57;22.50;;;13.70;;
35634;SDS011;21757;43.610;1.440;2022-12-10T16:53:24;22.98;;;13.30;;
35634;SDS011;21757;43.610;1.440;2022-12-10T16:55:53;19.00;;;12.38;;
35634;SDS011;21757;43.610;1.440;2022-12-10T16:58:20;42.58;;;21.58;;